Terminal Aerodrome Forecast
Issued by NWS Lake Charles, LA

Home | Current Version | Previous Version | Text Only | Print | Product List | Glossary On
Versions: 1 2 3 4 5 6 7 8 9 10 11 12 13 14
000
FTUS44 KLCH 131700
TAFAEX
TAF
KAEX 131733Z 1318/1418 VRB05KT P6SM SCT040 SCT250
     FM140100 15004KT P6SM FEW045 SCT250=

USA.gov is the U.S. government's official web portal to all federal, state and local government web resources and services.